createdAt,value
2019-04-22T00:00:36.658Z,9.53
2019-04-22T00:03:06.497Z,9.48
2019-04-22T00:05:56.206Z,9.42
2019-04-22T00:08:29.629Z,9.49
2019-04-22T00:10:56.071Z,9.55
2019-04-22T00:13:34.075Z,9.70
2019-04-22T00:15:47.794Z,9.74
2019-04-22T00:18:36.592Z,9.80
2019-04-22T00:21:04.430Z,9.84
2019-04-22T00:23:31.773Z,9.78
2019-04-22T00:26:03.878Z,9.76
2019-04-22T00:28:34.976Z,9.71
2019-04-22T00:31:19.197Z,9.59
2019-04-22T00:33:46.733Z,9.53
2019-04-22T00:36:19.355Z,9.52
2019-04-22T00:38:44.269Z,9.53
2019-04-22T00:41:13.263Z,9.59
2019-04-22T00:43:48.212Z,9.63
2019-04-22T00:46:20.583Z,9.69
2019-04-22T00:48:48.613Z,9.61
2019-04-22T00:51:12.308Z,9.53
2019-04-22T00:53:44.977Z,9.51
2019-04-22T00:56:18.707Z,9.55
2019-04-22T00:58:47.024Z,9.59
2019-04-22T01:01:31.831Z,9.66
2019-04-22T01:06:16.056Z,9.67
2019-04-22T01:08:53.011Z,9.70
2019-04-22T01:11:17.178Z,9.70
2019-04-22T01:13:44.288Z,9.80
2019-04-22T01:16:13.936Z,9.97
2019-04-22T01:18:44.132Z,10.11
2019-04-22T01:21:17.493Z,10.24
2019-04-22T01:23:40.713Z,10.41
2019-04-22T01:26:09.502Z,10.46
2019-04-22T01:28:34.283Z,10.55
2019-04-22T01:31:00.988Z,10.63
2019-04-22T01:33:32.377Z,10.68
2019-04-22T01:36:13.918Z,10.75
2019-04-22T01:38:45.419Z,10.83
2019-04-22T01:41:16.083Z,10.87
2019-04-22T01:43:54.377Z,10.92
2019-04-22T01:46:16.976Z,10.96
2019-04-22T01:48:47.924Z,11.07
2019-04-22T01:51:08.171Z,11.14
2019-04-22T01:53:42.567Z,11.18
2019-04-22T01:56:15.871Z,11.21
2019-04-22T01:58:33.224Z,11.31
2019-04-22T02:01:04.655Z,11.38
2019-04-22T02:04:02.341Z,11.46
2019-04-22T02:06:33.157Z,11.59
2019-04-22T02:09:07.216Z,11.74
2019-04-22T02:11:32.543Z,11.83
2019-04-22T02:13:56.797Z,11.93
2019-04-22T02:16:19.918Z,12.05
2019-04-22T02:18:54.769Z,12.04
2019-04-22T02:21:20.497Z,11.99
2019-04-22T02:24:00.633Z,11.93
2019-04-22T02:26:38.232Z,11.95
2019-04-22T02:29:04.673Z,11.92
2019-04-22T02:31:30.407Z,11.83
2019-04-22T02:56:27.238Z,11.50
2019-04-22T03:01:23.496Z,11.51
2019-04-22T03:04:01.150Z,11.61
2019-04-22T03:11:22.223Z,11.57
2019-04-22T03:13:46.944Z,11.53
2019-04-22T03:16:17.553Z,11.42
2019-04-22T03:18:50.707Z,11.31
2019-04-22T03:21:23.887Z,11.27
2019-04-22T03:23:55.671Z,11.24
2019-04-22T03:28:47.692Z,11.13
2019-04-22T03:39:38.056Z,10.79
2019-04-22T03:47:02.782Z,10.85
2019-04-22T03:52:03.148Z,10.99
2019-04-22T03:54:29.626Z,11.03
2019-04-22T03:59:26.878Z,11.08
2019-04-22T04:02:02.625Z,11.13
2019-04-22T04:04:25.990Z,11.14
2019-04-22T04:09:19.306Z,11.13
2019-04-22T04:14:26.918Z,11.09
2019-04-22T04:17:26.117Z,11.09
2019-04-22T04:21:42.031Z,10.96
2019-04-22T04:27:04.104Z,10.80
2019-04-22T04:29:25.596Z,10.74
2019-04-22T04:31:40.943Z,10.78
2019-04-22T04:34:16.888Z,10.78
2019-04-22T04:36:42.452Z,10.76
2019-04-22T04:39:10.343Z,10.72
2019-04-22T04:41:42.677Z,10.66
2019-04-22T04:44:12.785Z,10.71
2019-04-22T04:46:44.790Z,10.72
2019-04-22T04:49:07.480Z,10.70
2019-04-22T04:51:47.192Z,10.63
2019-04-22T04:54:16.706Z,10.56
2019-04-22T04:56:36.475Z,10.53
2019-04-22T05:01:29.877Z,10.50
2019-04-22T05:04:11.306Z,10.52
2019-04-22T05:06:39.655Z,10.49
2019-04-22T05:09:23.861Z,10.49
2019-04-22T05:12:25.335Z,10.49
2019-04-22T05:14:28.607Z,10.49
2019-04-22T05:19:25.691Z,10.57
2019-04-22T05:24:29.734Z,10.69
2019-04-22T05:27:13.464Z,10.77
2019-04-22T05:31:51.780Z,10.93
2019-04-22T05:34:31.816Z,11.04
2019-04-22T05:36:47.509Z,11.16
2019-04-22T05:41:44.551Z,11.36
2019-04-22T05:44:14.655Z,11.41
2019-04-22T05:46:42.288Z,11.47
2019-04-22T05:49:15.100Z,11.52
2019-04-22T05:54:14.585Z,11.75
2019-04-22T05:56:41.354Z,11.87
2019-04-22T05:59:13.996Z,12.03
2019-04-22T06:01:45.665Z,12.11
2019-04-22T06:06:28.774Z,12.23
2019-04-22T06:09:07.442Z,12.32
2019-04-22T06:11:46.443Z,12.38
2019-04-22T06:14:07.762Z,12.52
2019-04-22T06:16:53.234Z,12.64
2019-04-22T06:21:49.803Z,12.77
2019-04-22T06:24:26.085Z,12.86
2019-04-22T06:34:17.646Z,13.33
2019-04-22T06:36:46.382Z,13.49
2019-04-22T06:39:17.314Z,13.60
2019-04-22T06:44:21.459Z,13.76
2019-04-22T06:46:43.306Z,13.86
2019-04-22T06:49:09.342Z,13.95
2019-04-22T06:51:38.940Z,14.05
2019-04-22T06:54:07.747Z,14.18
2019-04-22T06:56:35.238Z,14.27
2019-04-22T06:59:09.994Z,14.38
2019-04-22T07:01:44.452Z,14.45
2019-04-22T07:04:09.468Z,14.53
2019-04-22T07:06:48.513Z,14.59
2019-04-22T07:09:28.495Z,14.64
2019-04-22T07:11:38.001Z,14.68
2019-04-22T07:14:04.459Z,14.71
2019-04-22T07:16:37.872Z,14.77
2019-04-22T07:19:09.267Z,14.83
2019-04-22T07:24:20.067Z,15.00
2019-04-22T07:26:33.260Z,15.09
2019-04-22T07:29:02.361Z,15.23
2019-04-22T07:31:53.027Z,15.30
2019-04-22T07:34:05.697Z,15.44
2019-04-22T07:36:45.528Z,15.60
2019-04-22T07:38:56.549Z,15.79
2019-04-22T07:41:28.743Z,15.95
2019-04-22T07:46:27.955Z,16.24
2019-04-22T07:51:36.809Z,16.52
2019-04-22T07:53:57.351Z,16.61
2019-04-22T07:56:23.937Z,16.71
2019-04-22T07:58:48.910Z,16.79
2019-04-22T08:01:20.297Z,16.86
2019-04-22T08:06:17.306Z,16.99
2019-04-22T08:08:45.757Z,17.09
2019-04-22T08:11:31.927Z,17.16
2019-04-22T08:14:01.580Z,17.25
2019-04-22T08:16:17.913Z,17.37
2019-04-22T08:18:39.475Z,17.46
2019-04-22T08:21:13.567Z,17.53
2019-04-22T08:23:46.309Z,17.58
2019-04-22T08:26:05.996Z,17.61
2019-04-22T08:31:10.558Z,17.70
2019-04-22T08:38:48.752Z,17.99
2019-04-22T08:41:34.869Z,18.05
2019-04-22T08:43:56.482Z,18.10
2019-04-22T08:46:23.622Z,18.18
2019-04-22T08:48:51.503Z,18.31
2019-04-22T08:51:15.496Z,18.36
2019-04-22T08:53:48.099Z,18.42
2019-04-22T08:56:28.363Z,18.47
2019-04-22T08:58:48.767Z,18.55
2019-04-22T09:01:11.204Z,18.66
2019-04-22T09:03:39.774Z,18.74
2019-04-22T09:06:11.323Z,18.81
2019-04-22T09:08:45.620Z,18.90
2019-04-22T09:11:16.039Z,18.93
2019-04-22T09:13:45.398Z,18.98
2019-04-22T09:16:16.632Z,19.07
2019-04-22T09:18:34.467Z,19.12
2019-04-22T09:21:14.208Z,19.26
2019-04-22T09:23:40.372Z,19.35
2019-04-22T09:26:06.545Z,19.42
2019-04-22T09:28:39.155Z,19.52
2019-04-22T09:31:06.092Z,19.62
2019-04-22T09:33:31.928Z,19.73
2019-04-22T09:36:11.645Z,19.80
2019-04-22T09:38:39.530Z,19.85
2019-04-22T09:41:00.724Z,19.97
2019-04-22T09:43:32.020Z,20.12
2019-04-22T09:46:02.150Z,20.19
2019-04-22T09:48:30.068Z,20.23
2019-04-22T09:50:52.606Z,20.39
2019-04-22T09:53:39.625Z,20.44
2019-04-22T09:56:00.051Z,20.50
2019-04-22T09:58:24.462Z,20.56
2019-04-22T10:01:18.709Z,20.73
2019-04-22T10:03:45.283Z,20.90
2019-04-22T10:06:16.475Z,21.00
2019-04-22T10:08:52.738Z,21.07
2019-04-22T10:11:13.124Z,21.16
2019-04-22T10:13:41.004Z,21.31
2019-04-22T10:16:10.582Z,21.49
2019-04-22T10:18:43.740Z,21.59
2019-04-22T10:21:08.376Z,21.67
2019-04-22T10:23:56.471Z,21.83
2019-04-22T10:26:05.049Z,21.96
2019-04-22T10:28:39.681Z,22.13
2019-04-22T10:31:07.267Z,22.28
2019-04-22T10:33:25.772Z,22.38
2019-04-22T10:36:13.181Z,22.50
2019-04-22T10:38:40.337Z,22.68
2019-04-22T10:41:08.558Z,22.81
2019-04-22T10:43:36.974Z,22.86
2019-04-22T10:46:04.325Z,22.96
2019-04-22T10:48:32.384Z,23.10
2019-04-22T10:51:01.508Z,23.29
2019-04-22T10:53:29.262Z,23.45
2019-04-22T10:55:56.530Z,23.58
2019-04-22T10:58:24.835Z,23.75
2019-04-22T11:00:52.879Z,23.88
2019-04-22T11:03:22.325Z,23.94
2019-04-22T11:05:50.588Z,24.08
2019-04-22T11:08:26.036Z,24.21
2019-04-22T11:11:03.628Z,24.40
2019-04-22T11:13:17.851Z,24.53
2019-04-22T11:15:52.970Z,24.63
2019-04-22T11:18:20.255Z,24.68
2019-04-22T11:20:49.563Z,24.73
2019-04-22T11:23:16.879Z,24.84
2019-04-22T11:25:44.050Z,24.90
2019-04-22T11:28:11.760Z,24.99
2019-04-22T11:30:40.603Z,25.16
2019-04-22T11:33:08.645Z,25.28
2019-04-22T11:35:35.817Z,25.30
2019-04-22T11:38:04.463Z,25.40
2019-04-22T11:40:37.923Z,25.53
2019-04-22T11:43:01.890Z,25.62
2019-04-22T11:45:29.252Z,25.68
2019-04-22T11:47:57.255Z,25.78
2019-04-22T11:50:27.970Z,25.98
2019-04-22T11:52:55.357Z,26.19
2019-04-22T11:55:22.875Z,26.42
2019-04-22T11:57:50.235Z,26.72
2019-04-22T12:00:27.028Z,26.92
2019-04-22T12:02:54.693Z,27.22
2019-04-22T12:05:23.755Z,27.58
2019-04-22T12:07:51.021Z,27.79
2019-04-22T12:10:29.904Z,28.04
2019-04-22T12:12:50.089Z,28.20
2019-04-22T12:15:18.987Z,28.30
2019-04-22T12:17:46.786Z,28.51
2019-04-22T12:20:16.513Z,28.79
2019-04-22T12:22:45.084Z,29.01
2019-04-22T12:25:29.212Z,29.31
2019-04-22T12:27:43.213Z,29.52
2019-04-22T12:30:12.846Z,29.67
2019-04-22T12:32:58.508Z,29.81
2019-04-22T12:35:26.296Z,30.07
2019-04-22T12:37:58.887Z,30.41
2019-04-22T12:40:34.208Z,30.47
2019-04-22T12:42:53.142Z,30.58
2019-04-22T12:45:22.426Z,30.63
2019-04-22T12:47:50.449Z,30.89
2019-04-22T12:50:29.319Z,30.94
2019-04-22T12:52:57.676Z,31.19
2019-04-22T12:55:21.871Z,31.51
2019-04-22T12:57:53.372Z,31.55
2019-04-22T13:00:20.432Z,31.50
2019-04-22T13:02:49.086Z,31.53
2019-04-22T13:05:18.604Z,31.43
2019-04-22T13:07:45.801Z,31.29
2019-04-22T13:10:13.826Z,31.41
2019-04-22T13:12:48.964Z,31.23
2019-04-22T13:15:19.990Z,31.30
2019-04-22T13:18:00.462Z,31.26
2019-04-22T13:20:20.092Z,31.35
2019-04-22T13:22:48.486Z,31.51
2019-04-22T13:25:17.973Z,31.64
2019-04-22T13:27:45.043Z,31.63
2019-04-22T13:30:16.437Z,31.48
2019-04-22T13:32:44.846Z,31.35
2019-04-22T13:35:12.884Z,31.26
2019-04-22T13:37:43.383Z,31.26
2019-04-22T13:40:12.522Z,31.42
2019-04-22T13:42:40.716Z,31.30
2019-04-22T13:45:09.675Z,30.98
2019-04-22T13:50:47.760Z,30.72
2019-04-22T13:53:10.607Z,30.76
2019-04-22T13:54:14.196Z,30.74
2019-04-22T13:55:36.299Z,30.60
2019-04-22T13:57:53.940Z,30.15
2019-04-22T14:00:10.307Z,29.53
2019-04-22T14:03:10.630Z,29.37
2019-04-22T14:05:40.405Z,29.31
2019-04-22T14:08:08.717Z,29.45
2019-04-22T14:10:38.484Z,29.67
2019-04-22T14:13:05.817Z,29.67
2019-04-22T14:15:36.090Z,29.47
2019-04-22T14:18:07.308Z,29.15
2019-04-22T14:20:36.605Z,29.04
2019-04-22T14:23:42.393Z,29.18
2019-04-22T14:26:11.155Z,28.93
2019-04-22T14:28:39.513Z,28.71
2019-04-22T14:31:06.849Z,28.63
2019-04-22T14:33:34.245Z,28.59
2019-04-22T14:36:02.566Z,28.66
2019-04-22T14:38:30.263Z,28.71
2019-04-22T14:40:58.544Z,28.20
2019-04-22T14:43:57.849Z,28.20
2019-04-22T14:46:30.607Z,28.28
2019-04-22T14:48:54.362Z,27.88
2019-04-22T14:51:14.783Z,27.40
2019-04-22T14:53:41.142Z,26.99
2019-04-22T14:55:54.639Z,26.99
2019-04-22T14:58:22.745Z,27.13
2019-04-22T15:00:51.907Z,27.32
2019-04-22T15:03:19.704Z,27.29
2019-04-22T15:05:48.244Z,27.21
2019-04-22T15:08:15.411Z,27.32
2019-04-22T15:10:43.970Z,27.35
2019-04-22T15:13:11.737Z,27.56
2019-04-22T15:15:59.522Z,27.41
2019-04-22T15:18:57.900Z,27.09
2019-04-22T15:21:27.029Z,26.95
2019-04-22T15:23:54.699Z,26.64
2019-04-22T15:26:24.396Z,26.45
2019-04-22T15:28:53.520Z,26.33
2019-04-22T15:31:21.652Z,26.42
2019-04-22T15:33:50.364Z,26.40
2019-04-22T15:36:18.094Z,26.27
2019-04-22T15:38:45.230Z,26.14
2019-04-22T15:41:12.531Z,26.01
2019-04-22T15:43:39.787Z,25.99
2019-04-22T15:46:07.673Z,25.90
2019-04-22T15:48:37.830Z,25.88
2019-04-22T15:51:05.002Z,25.94
2019-04-22T15:53:33.679Z,26.07
2019-04-22T15:56:01.035Z,26.13
2019-04-22T15:58:28.235Z,26.05
2019-04-22T16:01:06.514Z,26.08
2019-04-22T16:03:29.458Z,26.10
2019-04-22T16:05:57.714Z,26.11
2019-04-22T16:08:24.982Z,26.17
2019-04-22T16:10:53.358Z,26.04
2019-04-22T16:13:24.907Z,26.18
2019-04-22T16:15:49.794Z,26.02
2019-04-22T16:18:32.487Z,25.87
2019-04-22T16:21:00.320Z,25.88
2019-04-22T16:23:36.505Z,25.80
2019-04-22T16:26:15.312Z,25.70
2019-04-22T16:28:43.054Z,25.63
2019-04-22T16:31:25.338Z,25.55
2019-04-22T16:33:52.606Z,25.43
2019-04-22T16:36:20.755Z,25.31
2019-04-22T16:38:49.071Z,25.30
2019-04-22T16:41:17.055Z,25.29
2019-04-22T16:43:44.719Z,25.23
2019-04-22T16:46:12.116Z,25.06
2019-04-22T16:48:39.972Z,24.97
2019-04-22T16:51:07.098Z,24.93
2019-04-22T16:53:35.036Z,24.70
2019-04-22T16:56:02.742Z,24.54
2019-04-22T16:59:08.659Z,24.42
2019-04-22T17:02:04.529Z,24.27
2019-04-22T17:04:55.775Z,24.00
2019-04-22T17:07:24.467Z,23.77
2019-04-22T17:09:52.138Z,23.63
2019-04-22T17:12:19.791Z,23.57
2019-04-22T17:14:52.747Z,23.57
2019-04-22T17:17:15.876Z,23.53
2019-04-22T17:19:42.995Z,23.54
2019-04-22T17:22:11.430Z,23.47
2019-04-22T17:24:39.778Z,23.39
2019-04-22T17:27:06.810Z,23.31
2019-04-22T17:29:34.788Z,23.23
2019-04-22T17:32:06.813Z,23.08
2019-04-22T17:34:31.794Z,22.96
2019-04-22T17:37:04.075Z,22.87
2019-04-22T17:39:43.559Z,22.70
2019-04-22T17:42:22.109Z,22.59
2019-04-22T17:45:19.129Z,22.47
2019-04-22T17:48:00.783Z,22.42
2019-04-22T17:50:39.992Z,22.28
2019-04-22T17:53:08.647Z,22.25
2019-04-22T17:55:37.049Z,22.12
2019-04-22T17:57:59.515Z,21.93
2019-04-22T18:00:30.442Z,21.81
2019-04-22T18:02:54.744Z,21.65
2019-04-22T18:05:13.088Z,21.62
2019-04-22T18:08:03.783Z,21.51
2019-04-22T18:10:32.414Z,21.44
2019-04-22T18:13:07.404Z,21.23
2019-04-22T18:15:29.420Z,21.12
2019-04-22T18:18:08.704Z,20.95
2019-04-22T18:20:22.672Z,20.77
2019-04-22T18:22:45.934Z,20.65
2019-04-22T18:25:20.158Z,20.48
2019-04-22T18:28:00.695Z,20.34
2019-04-22T18:30:20.459Z,20.31
2019-04-22T18:32:52.101Z,20.23
2019-04-22T18:35:23.822Z,20.24
2019-04-22T18:37:53.671Z,20.20
2019-04-22T18:40:25.985Z,20.11
2019-04-22T18:42:58.751Z,20.06
2019-04-22T18:45:37.195Z,19.94
2019-04-22T18:47:45.440Z,19.81
2019-04-22T18:50:17.409Z,19.71
2019-04-22T18:53:13.075Z,19.65
2019-04-22T18:56:14.759Z,19.64
2019-04-22T18:58:32.214Z,19.49
2019-04-22T19:00:48.221Z,19.35
2019-04-22T19:03:22.224Z,19.32
2019-04-22T19:06:13.208Z,19.21
2019-04-22T19:08:50.286Z,19.06
2019-04-22T19:11:09.963Z,19.08
2019-04-22T19:16:19.727Z,18.95
2019-04-22T19:18:34.654Z,18.95
2019-04-22T19:21:07.980Z,18.90
2019-04-22T19:23:31.919Z,18.83
2019-04-22T19:25:58.637Z,18.76
2019-04-22T19:28:35.820Z,18.73
2019-04-22T19:31:02.745Z,18.72
2019-04-22T19:33:32.990Z,18.68
2019-04-22T19:35:59.698Z,18.55
2019-04-22T19:38:19.164Z,18.43
2019-04-22T19:41:06.863Z,18.37
2019-04-22T19:43:29.254Z,18.29
2019-04-22T19:45:55.403Z,18.19
2019-04-22T19:48:35.884Z,18.09
2019-04-22T19:51:11.345Z,18.10
2019-04-22T19:53:37.192Z,18.03
2019-04-22T19:55:53.748Z,17.95
2019-04-22T19:58:28.782Z,17.84
2019-04-22T20:01:15.098Z,17.73
2019-04-22T20:04:12.281Z,17.65
2019-04-22T20:06:38.414Z,17.56
2019-04-22T20:09:12.194Z,17.48
2019-04-22T20:11:35.232Z,17.42
2019-04-22T20:14:06.010Z,17.38
2019-04-22T20:16:27.539Z,17.28
2019-04-22T20:19:04.793Z,17.21
2019-04-22T20:21:38.771Z,17.07
2019-04-22T20:23:51.481Z,17.03
2019-04-22T20:26:24.507Z,17.02
2019-04-22T20:28:57.622Z,16.97
2019-04-22T20:31:30.070Z,17.03
2019-04-22T20:34:04.732Z,17.03
2019-04-22T20:36:44.910Z,16.99
2019-04-22T20:38:56.109Z,16.97
2019-04-22T20:41:22.988Z,17.05
2019-04-22T20:43:56.662Z,17.03
2019-04-22T20:46:28.490Z,16.99
2019-04-22T20:48:55.398Z,16.91
2019-04-22T20:51:26.376Z,16.86
2019-04-22T20:53:56.735Z,16.88
2019-04-22T20:56:18.704Z,16.85
2019-04-22T20:58:52.161Z,16.81
2019-04-22T21:01:15.740Z,16.76
2019-04-22T21:03:40.790Z,16.74
2019-04-22T21:06:16.422Z,16.67
2019-04-22T21:08:48.699Z,16.58
2019-04-22T21:11:17.834Z,16.49
2019-04-22T21:13:39.766Z,16.42
2019-04-22T21:16:17.700Z,16.38
2019-04-22T21:18:39.161Z,16.32
2019-04-22T21:21:13.500Z,16.22
2019-04-22T21:23:34.954Z,16.18
2019-04-22T21:26:08.278Z,16.07
2019-04-22T21:28:38.314Z,15.92
2019-04-22T21:31:16.755Z,15.82
2019-04-22T21:33:40.389Z,15.71
2019-04-22T21:36:13.817Z,15.63
2019-04-22T21:38:37.608Z,15.51
2019-04-22T21:41:06.542Z,15.44
2019-04-22T21:43:35.860Z,15.39
2019-04-22T21:46:08.891Z,15.40
2019-04-22T21:48:36.917Z,15.37
2019-04-22T21:51:04.724Z,15.34
2019-04-22T21:53:41.653Z,15.31
2019-04-22T21:56:11.623Z,15.26
2019-04-22T21:58:38.604Z,15.19
2019-04-22T22:01:38.254Z,15.09
2019-04-22T22:04:03.089Z,15.01
2019-04-22T22:06:21.832Z,14.96
2019-04-22T22:08:57.962Z,14.97
2019-04-22T22:11:23.547Z,14.96
2019-04-22T22:13:55.157Z,14.94
2019-04-22T22:16:22.155Z,14.88
2019-04-22T22:18:57.808Z,14.77
2019-04-22T22:23:49.388Z,14.52
2019-04-22T22:26:13.432Z,14.51
2019-04-22T22:33:48.179Z,14.30
2019-04-22T22:36:15.240Z,14.25
2019-04-22T22:38:43.818Z,14.20
2019-04-22T22:40:56.039Z,14.20
2019-04-22T22:43:32.981Z,14.19
2019-04-22T22:46:03.195Z,14.10
2019-04-22T22:48:46.096Z,14.07
2019-04-22T22:51:09.866Z,13.91
2019-04-22T22:53:46.428Z,13.73
2019-04-22T22:56:10.736Z,13.62
2019-04-22T22:58:42.611Z,13.53
2019-04-22T23:01:06.336Z,13.43
2019-04-22T23:06:12.807Z,13.24
2019-04-22T23:08:41.620Z,13.16
2019-04-22T23:11:05.648Z,13.20
2019-04-22T23:13:38.669Z,13.17
2019-04-22T23:16:04.314Z,13.11
2019-04-22T23:18:23.606Z,13.00
2019-04-22T23:20:53.429Z,12.81
2019-04-22T23:23:37.885Z,12.66
2019-04-22T23:26:10.358Z,12.50
2019-04-22T23:28:35.004Z,12.42
2019-04-22T23:31:30.835Z,12.36
2019-04-22T23:34:07.845Z,12.36
2019-04-22T23:36:50.244Z,12.44
2019-04-22T23:39:22.724Z,12.61
2019-04-22T23:42:00.443Z,12.66
2019-04-22T23:44:39.625Z,12.64
2019-04-22T23:47:06.181Z,12.68
2019-04-22T23:49:32.617Z,12.68
2019-04-22T23:52:27.130Z,12.61
2019-04-22T23:55:03.337Z,12.50
2019-04-22T23:57:36.643Z,12.51
